Rockville Center, New York
Current Conditions -  °F | °C
As of 6:51 AM on Thursday 18 Dec 2014 (Local Time) from KJFK Reporting Station
Scattered Clouds Scattered Clouds  
Wind Chill: 30°   Ceiling: Unl
Heat Index: 39°   Visibility: 10mi
Dew Point: 22°   Wind: 17mph
Humidity: 50%   Direction: 310°NW
Pressure: 29.96"   Gusts: 24mph
Location:  40.6644°N, 73.6384°W
Report Text: KJFK 181151Z 31015G21KT 10SM SCT041 SCT100 04/M06 A2996 RMK AO2 SLP144 T00391056 10056 20039 51016
Loading
Personal Weather Stations






























Interactive Weather Map New forecast layout! Learn more

10-Day Weather Forecast

Advertisements
Track Severe Weather on mobile